createdAt,value
2019-05-15T00:00:58.810Z,99.90
2019-05-15T00:03:25.398Z,99.90
2019-05-15T00:05:51.677Z,99.90
2019-05-15T00:08:18.419Z,99.90
2019-05-15T00:10:44.963Z,99.90
2019-05-15T00:13:11.254Z,99.90
2019-05-15T00:15:40.004Z,99.90
2019-05-15T00:18:05.986Z,99.90
2019-05-15T00:20:32.365Z,99.90
2019-05-15T00:22:58.881Z,99.90
2019-05-15T00:25:25.360Z,99.90
2019-05-15T00:27:51.654Z,99.90
2019-05-15T00:30:18.447Z,99.90
2019-05-15T00:32:44.900Z,99.90
2019-05-15T00:35:11.410Z,99.90
2019-05-15T00:37:38.743Z,99.90
2019-05-15T00:40:05.624Z,99.90
2019-05-15T00:42:31.999Z,99.90
2019-05-15T00:44:58.580Z,99.90
2019-05-15T00:47:24.956Z,99.90
2019-05-15T00:49:51.408Z,99.90
2019-05-15T00:52:18.108Z,99.90
2019-05-15T00:54:44.484Z,99.90
2019-05-15T00:57:10.930Z,99.90
2019-05-15T00:59:39.001Z,99.90
2019-05-15T01:02:05.430Z,99.90
2019-05-15T01:04:31.691Z,99.90
2019-05-15T01:06:58.903Z,99.90
2019-05-15T01:09:25.278Z,99.90
2019-05-15T01:11:51.815Z,99.90
2019-05-15T01:14:18.632Z,99.90
2019-05-15T01:16:45.195Z,99.90
2019-05-15T01:19:11.491Z,99.90
2019-05-15T01:21:38.481Z,99.90
2019-05-15T01:24:05.077Z,99.90
2019-05-15T01:26:31.539Z,99.90
2019-05-15T01:28:58.428Z,99.90
2019-05-15T01:31:25.041Z,99.90
2019-05-15T01:33:51.295Z,99.90
2019-05-15T01:36:19.306Z,99.90
2019-05-15T01:38:47.733Z,99.90
2019-05-15T01:41:13.795Z,99.90
2019-05-15T01:43:40.115Z,99.90
2019-05-15T01:46:08.439Z,99.90
2019-05-15T01:48:34.511Z,99.90
2019-05-15T01:51:00.829Z,99.90
2019-05-15T01:53:28.983Z,99.90
2019-05-15T01:55:55.332Z,99.90
2019-05-15T01:58:21.720Z,99.90
2019-05-15T02:00:48.424Z,99.90
2019-05-15T02:03:14.836Z,99.90
2019-05-15T02:05:41.316Z,99.90
2019-05-15T02:08:08.294Z,99.90
2019-05-15T02:10:34.665Z,99.90
2019-05-15T02:13:01.028Z,99.90
2019-05-15T02:15:28.548Z,99.90
2019-05-15T02:17:55.194Z,99.90
2019-05-15T02:20:21.442Z,99.90
2019-05-15T02:22:48.534Z,99.90
2019-05-15T02:25:14.973Z,99.90
2019-05-15T02:27:41.236Z,99.90
2019-05-15T02:30:18.037Z,99.90
2019-05-15T02:32:39.285Z,99.90
2019-05-15T02:35:04.774Z,99.90
2019-05-15T02:37:31.074Z,99.90
2019-05-15T02:39:58.937Z,99.90
2019-05-15T02:42:28.731Z,99.90
2019-05-15T02:44:53.608Z,99.90
2019-05-15T02:47:20.205Z,99.90
2019-05-15T02:49:48.585Z,99.90
2019-05-15T02:52:14.841Z,99.90
2019-05-15T02:54:41.064Z,99.90
2019-05-15T02:57:09.836Z,99.90
2019-05-15T02:59:35.412Z,99.90
2019-05-15T03:02:01.861Z,99.90
2019-05-15T03:04:29.086Z,99.90
2019-05-15T03:06:56.189Z,99.90
2019-05-15T03:09:22.665Z,99.90
2019-05-15T03:11:49.697Z,99.90
2019-05-15T03:14:16.171Z,99.90
2019-05-15T03:16:42.644Z,99.90
2019-05-15T03:19:09.982Z,99.90
2019-05-15T03:21:38.865Z,99.90
2019-05-15T03:24:04.949Z,99.90
2019-05-15T03:26:31.331Z,99.90
2019-05-15T03:28:59.066Z,99.90
2019-05-15T03:31:43.481Z,99.90
2019-05-15T03:33:55.171Z,99.90
2019-05-15T03:36:23.818Z,99.90
2019-05-15T03:38:50.218Z,99.90
2019-05-15T03:41:19.545Z,99.90
2019-05-15T03:43:45.054Z,99.90
2019-05-15T03:46:11.531Z,99.90
2019-05-15T03:48:40.200Z,99.90
2019-05-15T03:51:09.220Z,99.90
2019-05-15T03:53:34.448Z,99.90
2019-05-15T03:56:00.900Z,99.90
2019-05-15T03:58:28.853Z,99.90
2019-05-15T04:00:55.486Z,99.90
2019-05-15T04:03:21.733Z,99.90
2019-05-15T04:05:49.382Z,99.90
2019-05-15T04:08:19.162Z,99.90
2019-05-15T04:10:44.220Z,99.90
2019-05-15T04:13:10.674Z,99.90
2019-05-15T04:15:39.561Z,99.90
2019-05-15T04:18:05.303Z,99.90
2019-05-15T04:20:31.701Z,99.90
2019-05-15T04:23:00.339Z,99.90
2019-05-15T04:25:29.711Z,99.90
2019-05-15T04:27:58.691Z,99.90
2019-05-15T04:30:24.496Z,99.90
2019-05-15T04:32:50.770Z,99.90
2019-05-15T04:35:19.809Z,99.90
2019-05-15T04:37:45.293Z,99.90
2019-05-15T04:40:12.207Z,99.90
2019-05-15T04:42:39.760Z,99.90
2019-05-15T04:45:10.042Z,99.90
2019-05-15T04:47:35.231Z,99.90
2019-05-15T04:50:01.708Z,99.90
2019-05-15T04:52:30.387Z,99.90
2019-05-15T04:54:59.602Z,99.90
2019-05-15T04:57:28.877Z,99.90
2019-05-15T04:59:52.966Z,99.90
2019-05-15T05:02:26.497Z,99.90
2019-05-15T05:04:49.298Z,99.90
2019-05-15T05:07:18.921Z,99.90
2019-05-15T05:09:45.256Z,99.90
2019-05-15T05:12:11.666Z,99.90
2019-05-15T05:14:39.112Z,99.90
2019-05-15T05:17:08.794Z,99.90
2019-05-15T05:19:34.112Z,99.90
2019-05-15T05:22:00.398Z,99.90
2019-05-15T05:24:28.041Z,99.90
2019-05-15T05:26:54.459Z,99.90
2019-05-15T05:29:21.009Z,99.90
2019-05-15T05:31:49.166Z,99.90
2019-05-15T05:34:15.903Z,99.90
2019-05-15T05:36:42.500Z,99.90
2019-05-15T05:39:11.435Z,99.90
2019-05-15T05:41:39.128Z,99.90
2019-05-15T05:44:05.237Z,99.90
2019-05-15T05:46:31.741Z,99.90
2019-05-15T05:48:58.390Z,99.90
2019-05-15T05:51:44.666Z,99.90
2019-05-15T05:54:11.045Z,99.90
2019-05-15T05:56:38.578Z,99.90
2019-05-15T05:59:05.270Z,99.90
2019-05-15T06:01:31.659Z,99.90
2019-05-15T06:03:58.410Z,99.90
2019-05-15T06:06:24.813Z,99.90
2019-05-15T06:08:51.233Z,99.90
2019-05-15T06:11:18.366Z,99.90
2019-05-15T06:13:44.979Z,99.90
2019-05-15T06:16:11.490Z,99.90
2019-05-15T06:18:38.761Z,99.90
2019-05-15T06:21:05.740Z,99.90
2019-05-15T06:23:35.127Z,99.90
2019-05-15T06:26:00.190Z,99.90
2019-05-15T06:28:28.981Z,99.90
2019-05-15T06:30:54.592Z,99.90
2019-05-15T06:33:20.845Z,99.90
2019-05-15T06:35:48.856Z,99.90
2019-05-15T06:38:15.361Z,99.90
2019-05-15T06:40:41.914Z,99.90
2019-05-15T06:43:08.785Z,99.90
2019-05-15T06:45:35.282Z,99.90
2019-05-15T06:48:02.126Z,99.90
2019-05-15T06:50:34.919Z,99.90
2019-05-15T06:53:01.364Z,99.90
2019-05-15T06:55:28.891Z,99.90
2019-05-15T06:57:58.241Z,99.90
2019-05-15T07:00:23.893Z,99.90
2019-05-15T07:02:50.512Z,99.90
2019-05-15T07:05:18.397Z,99.90
2019-05-15T07:07:44.790Z,99.90
2019-05-15T07:10:11.694Z,99.90
2019-05-15T07:12:39.061Z,99.90
2019-05-15T07:15:06.042Z,99.90
2019-05-15T07:17:32.581Z,99.90
2019-05-15T07:19:59.375Z,99.90
2019-05-15T07:22:25.750Z,99.90
2019-05-15T07:24:52.192Z,99.90
2019-05-15T07:27:18.919Z,99.90
2019-05-15T07:29:45.356Z,99.90
2019-05-15T07:32:11.682Z,99.90
2019-05-15T07:34:38.248Z,99.90
2019-05-15T07:37:04.734Z,99.90
2019-05-15T07:39:31.496Z,99.90
2019-05-15T07:41:57.907Z,99.90
2019-05-15T07:44:24.253Z,99.80
2019-05-15T07:46:50.549Z,99.90
2019-05-15T07:49:18.159Z,99.90
2019-05-15T07:51:44.898Z,99.80
2019-05-15T07:54:11.279Z,97.60
2019-05-15T07:56:38.142Z,96.50
2019-05-15T07:59:04.603Z,95.10
2019-05-15T08:01:31.606Z,94.20
2019-05-15T08:04:09.720Z,93.90
2019-05-15T08:06:28.735Z,94.60
2019-05-15T08:08:54.673Z,93.10
2019-05-15T08:11:24.692Z,92.00
2019-05-15T08:13:49.368Z,92.70
2019-05-15T08:16:17.968Z,90.50
2019-05-15T08:18:48.415Z,90.80
2019-05-15T08:21:14.972Z,92.50
2019-05-15T08:23:41.326Z,90.70
2019-05-15T08:26:08.754Z,91.70
2019-05-15T08:28:38.075Z,92.20
2019-05-15T08:31:06.692Z,90.80
2019-05-15T08:33:32.885Z,89.30
2019-05-15T08:36:01.523Z,87.60
2019-05-15T08:38:29.012Z,86.10
2019-05-15T08:40:59.137Z,83.90
2019-05-15T08:43:28.287Z,82.80
2019-05-15T08:45:53.310Z,81.00
2019-05-15T08:48:19.628Z,78.80
2019-05-15T08:50:48.570Z,80.10
2019-05-15T08:53:14.698Z,83.10
2019-05-15T08:55:41.551Z,83.60
2019-05-15T08:58:13.222Z,80.20
2019-05-15T09:00:39.609Z,78.20
2019-05-15T09:03:08.692Z,75.10
2019-05-15T09:05:35.231Z,74.10
2019-05-15T09:08:01.553Z,74.00
2019-05-15T09:10:28.759Z,75.70
2019-05-15T09:12:55.125Z,70.90
2019-05-15T09:15:23.790Z,74.00
2019-05-15T09:17:50.243Z,74.10
2019-05-15T09:20:19.456Z,69.90
2019-05-15T09:22:45.206Z,68.20
2019-05-15T09:25:12.013Z,67.40
2019-05-15T09:27:38.544Z,67.80
2019-05-15T09:30:09.785Z,66.40
2019-05-15T09:32:38.955Z,65.60
2019-05-15T09:35:08.174Z,64.60
2019-05-15T09:37:33.994Z,65.80
2019-05-15T09:40:01.151Z,65.00
2019-05-15T09:42:29.657Z,64.90
2019-05-15T09:44:58.049Z,63.10
2019-05-15T09:47:25.947Z,64.00
2019-05-15T09:49:52.552Z,62.10
2019-05-15T09:52:22.662Z,60.30
2019-05-15T09:54:50.507Z,61.70
2019-05-15T09:57:18.935Z,63.40
2019-05-15T09:59:45.317Z,64.00
2019-05-15T10:02:11.764Z,64.90
2019-05-15T10:04:39.101Z,64.00
2019-05-15T10:07:08.069Z,62.50
2019-05-15T10:09:33.642Z,62.00
2019-05-15T10:12:00.008Z,61.60
2019-05-15T10:14:26.600Z,61.60
2019-05-15T10:16:53.154Z,60.70
2019-05-15T10:19:19.651Z,60.40
2019-05-15T10:21:52.480Z,60.40
2019-05-15T10:24:13.965Z,60.30
2019-05-15T10:26:40.416Z,60.10
2019-05-15T10:29:09.180Z,57.80
2019-05-15T10:31:35.295Z,58.20
2019-05-15T10:34:01.644Z,59.40
2019-05-15T10:36:28.183Z,58.50
2019-05-15T10:38:54.691Z,58.70
2019-05-15T10:41:21.136Z,58.20
2019-05-15T10:43:55.824Z,59.60
2019-05-15T10:46:15.881Z,60.60
2019-05-15T10:48:42.508Z,60.70
2019-05-15T10:51:10.223Z,58.50
2019-05-15T10:53:38.939Z,58.60
2019-05-15T10:56:05.105Z,58.70
2019-05-15T10:58:31.554Z,59.40
2019-05-15T11:01:02.217Z,58.60
2019-05-15T11:03:26.542Z,60.20
2019-05-15T11:05:52.962Z,61.40
2019-05-15T11:08:19.300Z,60.90
2019-05-15T11:10:45.639Z,61.80
2019-05-15T11:13:12.013Z,61.80
2019-05-15T11:15:41.935Z,59.70
2019-05-15T11:18:09.103Z,60.00
2019-05-15T11:20:34.965Z,59.70
2019-05-15T11:23:01.262Z,60.40
2019-05-15T11:25:29.927Z,60.90
2019-05-15T11:27:55.984Z,60.50
2019-05-15T11:30:22.527Z,61.60
2019-05-15T11:32:49.118Z,60.70
2019-05-15T11:35:18.536Z,60.00
2019-05-15T11:37:46.960Z,59.10
2019-05-15T11:40:14.525Z,58.70
2019-05-15T11:42:41.152Z,58.80
2019-05-15T11:45:08.431Z,58.20
2019-05-15T11:47:34.909Z,57.30
2019-05-15T11:50:01.536Z,56.90
2019-05-15T11:52:29.475Z,56.30
2019-05-15T11:54:58.794Z,57.10
2019-05-15T11:57:37.284Z,56.70
2019-05-15T11:59:55.387Z,55.90
2019-05-15T12:02:20.883Z,56.60
2019-05-15T12:04:47.184Z,56.40
2019-05-15T12:07:13.461Z,56.20
2019-05-15T12:09:39.703Z,56.40
2019-05-15T12:12:08.691Z,56.50
2019-05-15T12:14:34.133Z,57.00
2019-05-15T12:17:10.452Z,57.20
2019-05-15T12:19:29.307Z,56.70
2019-05-15T12:21:55.680Z,57.70
2019-05-15T12:24:22.283Z,56.30
2019-05-15T12:26:49.050Z,57.70
2019-05-15T12:29:15.556Z,58.10
2019-05-15T12:31:41.979Z,56.20
2019-05-15T12:34:09.129Z,56.30
2019-05-15T12:36:50.741Z,56.40
2019-05-15T12:39:10.525Z,56.70
2019-05-15T13:01:21.876Z,56.90
2019-05-15T13:03:48.708Z,57.30
2019-05-15T13:06:19.243Z,58.50
2019-05-15T13:08:45.054Z,59.50
2019-05-15T13:11:15.171Z,59.80
2019-05-15T13:13:39.787Z,59.40
2019-05-15T13:16:06.114Z,58.80
2019-05-15T13:18:32.455Z,57.70
2019-05-15T13:20:59.709Z,57.10
2019-05-15T13:23:28.308Z,56.60
2019-05-15T13:25:54.466Z,55.80
2019-05-15T13:28:20.759Z,55.40
2019-05-15T13:30:49.022Z,55.00
2019-05-15T13:33:15.156Z,55.10
2019-05-15T13:35:41.446Z,55.50
2019-05-15T13:38:09.942Z,55.90
2019-05-15T13:40:40.995Z,54.50
2019-05-15T13:43:23.934Z,54.60
2019-05-15T13:45:50.359Z,55.60
2019-05-15T13:48:19.761Z,57.00
2019-05-15T13:50:44.928Z,57.80
2019-05-15T13:53:11.446Z,58.10
2019-05-15T13:55:42.437Z,58.50
2019-05-15T13:58:08.510Z,57.00
2019-05-15T14:00:34.906Z,56.40
2019-05-15T14:03:01.700Z,56.00
2019-05-15T14:05:29.669Z,53.90
2019-05-15T14:07:58.308Z,53.60
2019-05-15T14:10:24.582Z,53.20
2019-05-15T14:12:50.918Z,52.60
2019-05-15T14:15:17.707Z,53.00
2019-05-15T14:17:44.302Z,53.00
2019-05-15T14:20:11.227Z,52.40
2019-05-15T14:22:38.985Z,52.40
2019-05-15T14:25:08.590Z,51.30
2019-05-15T14:27:34.653Z,51.30
2019-05-15T14:30:01.094Z,51.90
2019-05-15T14:32:38.411Z,52.10
2019-05-15T14:34:58.376Z,52.60
2019-05-15T14:37:23.884Z,53.50
2019-05-15T14:39:52.377Z,53.30
2019-05-15T14:42:18.721Z,53.80
2019-05-15T14:44:45.268Z,54.40
2019-05-15T14:47:11.584Z,54.20
2019-05-15T14:49:44.155Z,54.30
2019-05-15T14:52:09.184Z,54.90
2019-05-15T14:54:34.324Z,54.80
2019-05-15T14:57:00.591Z,54.10
2019-05-15T14:59:27.142Z,54.60
2019-05-15T15:01:53.421Z,54.00
2019-05-15T15:04:20.186Z,54.00
2019-05-15T15:06:48.717Z,53.50
2019-05-15T15:09:18.757Z,53.70
2019-05-15T15:11:44.768Z,53.00
2019-05-15T15:14:11.136Z,53.10
2019-05-15T15:16:38.470Z,53.30
2019-05-15T15:19:04.966Z,53.20
2019-05-15T15:21:31.402Z,53.50
2019-05-15T15:23:58.760Z,53.70
2019-05-15T15:26:25.235Z,55.70
2019-05-15T15:28:51.622Z,55.30
2019-05-15T15:31:19.124Z,55.20
2019-05-15T15:33:48.431Z,56.10
2019-05-15T15:36:14.816Z,56.20
2019-05-15T15:38:43.986Z,54.90
2019-05-15T15:41:09.612Z,54.30
2019-05-15T15:43:36.079Z,53.60
2019-05-15T15:46:02.864Z,54.20
2019-05-15T15:48:29.299Z,54.40
2019-05-15T15:50:57.990Z,54.10
2019-05-15T15:53:24.207Z,54.10
2019-05-15T15:55:50.605Z,54.30
2019-05-15T15:58:19.939Z,54.80
2019-05-15T16:00:48.855Z,54.40
2019-05-15T16:03:14.500Z,53.70
2019-05-15T16:05:40.880Z,53.90
2019-05-15T16:08:08.470Z,53.60
2019-05-15T16:10:37.748Z,54.70
2019-05-15T16:13:03.774Z,53.80
2019-05-15T16:15:30.329Z,53.70
2019-05-15T16:17:56.678Z,53.40
2019-05-15T16:20:23.155Z,53.00
2019-05-15T16:22:49.555Z,53.00
2019-05-15T16:25:18.059Z,52.90
2019-05-15T16:27:44.414Z,52.10
2019-05-15T16:30:11.405Z,51.70
2019-05-15T16:32:38.801Z,51.90
2019-05-15T16:35:08.727Z,51.30
2019-05-15T16:37:35.106Z,51.40
2019-05-15T16:40:17.891Z,51.80
2019-05-15T16:42:43.925Z,51.70
2019-05-15T16:45:10.820Z,52.20
2019-05-15T16:47:38.846Z,51.90
2019-05-15T16:50:06.772Z,51.60
2019-05-15T16:52:33.303Z,51.80
2019-05-15T16:54:59.578Z,51.10
2019-05-15T16:57:28.027Z,52.30
2019-05-15T16:59:53.890Z,52.90
2019-05-15T17:02:20.279Z,52.60
2019-05-15T17:04:48.706Z,52.30
2019-05-15T17:07:14.837Z,52.70
2019-05-15T17:09:41.425Z,53.00
2019-05-15T17:12:08.762Z,52.30
2019-05-15T17:14:35.278Z,52.70
2019-05-15T17:17:02.489Z,52.10
2019-05-15T17:19:29.397Z,52.60
2019-05-15T17:21:55.773Z,52.80
2019-05-15T17:24:22.012Z,52.70
2019-05-15T17:26:48.552Z,52.80
2019-05-15T17:29:14.853Z,52.40
2019-05-15T17:31:41.331Z,52.90
2019-05-15T17:34:08.353Z,52.70
2019-05-15T17:36:35.034Z,53.00
2019-05-15T17:39:01.442Z,53.50
2019-05-15T17:41:28.565Z,53.60
2019-05-15T17:43:55.418Z,53.90
2019-05-15T17:46:23.791Z,53.80
2019-05-15T17:48:55.664Z,53.60
2019-05-15T17:51:18.929Z,53.80
2019-05-15T17:53:45.261Z,53.80
2019-05-15T17:56:11.727Z,54.30
2019-05-15T17:58:38.250Z,54.20
2019-05-15T18:01:04.913Z,54.20
2019-05-15T18:03:31.319Z,54.70
2019-05-15T18:05:59.076Z,54.50
2019-05-15T18:08:28.471Z,54.60
2019-05-15T18:10:54.710Z,54.40
2019-05-15T18:13:21.123Z,54.40
2019-05-15T18:15:48.887Z,54.20
2019-05-15T18:18:15.499Z,54.30
2019-05-15T18:20:41.730Z,54.60
2019-05-15T18:23:08.596Z,55.30
2019-05-15T18:25:35.298Z,55.00
2019-05-15T18:28:01.858Z,55.20
2019-05-15T18:30:28.373Z,54.70
2019-05-15T18:32:55.236Z,55.50
2019-05-15T18:35:21.638Z,54.60
2019-05-15T18:37:48.347Z,53.40
2019-05-15T18:40:14.921Z,51.10
2019-05-15T18:42:41.404Z,51.40
2019-05-15T18:45:09.856Z,50.10
2019-05-15T18:47:38.688Z,47.90
2019-05-15T18:50:12.709Z,48.50
2019-05-15T18:52:35.200Z,48.40
2019-05-15T18:55:01.780Z,47.90
2019-05-15T18:57:28.451Z,48.60
2019-05-15T18:59:54.860Z,48.10
2019-05-15T19:02:21.263Z,46.90
2019-05-15T19:04:49.029Z,47.00
2019-05-15T19:07:18.014Z,46.60
2019-05-15T19:09:44.267Z,46.40
2019-05-15T19:12:11.008Z,46.80
2019-05-15T19:14:39.516Z,47.30
2019-05-15T19:17:05.643Z,47.10
2019-05-15T19:19:32.092Z,48.00
2019-05-15T19:21:58.949Z,46.90
2019-05-15T19:24:25.790Z,47.90
2019-05-15T19:26:52.625Z,46.90
2019-05-15T19:29:19.031Z,46.90
2019-05-15T19:31:46.699Z,47.10
2019-05-15T19:34:13.411Z,47.40
2019-05-15T19:36:39.787Z,48.00
2019-05-15T19:39:08.086Z,47.80
2019-05-15T19:41:34.725Z,48.20
2019-05-15T19:44:00.998Z,48.40
2019-05-15T19:46:28.296Z,48.50
2019-05-15T19:48:55.234Z,49.00
2019-05-15T19:51:21.600Z,48.90
2019-05-15T19:53:48.690Z,48.60
2019-05-15T19:56:14.970Z,49.00
2019-05-15T19:58:41.497Z,48.60
2019-05-15T20:01:08.216Z,49.20
2019-05-15T20:03:47.309Z,49.70
2019-05-15T20:06:02.917Z,49.70
2019-05-15T20:08:29.358Z,50.10
2019-05-15T20:10:55.666Z,50.10
2019-05-15T20:13:22.492Z,50.20
2019-05-15T20:15:49.097Z,50.30
2019-05-15T20:18:15.378Z,50.70
2019-05-15T20:20:41.717Z,50.70
2019-05-15T20:23:08.643Z,51.10
2019-05-15T20:25:35.210Z,51.40
2019-05-15T20:28:01.629Z,51.50
2019-05-15T20:30:30.251Z,51.90
2019-05-15T20:32:59.400Z,52.10
2019-05-15T20:35:28.222Z,53.00
2019-05-15T20:37:58.690Z,53.10
2019-05-15T20:40:33.780Z,53.40
2019-05-15T20:43:00.870Z,53.90
2019-05-15T20:45:29.183Z,54.10
2019-05-15T20:47:55.305Z,54.60
2019-05-15T20:50:21.584Z,54.90
2019-05-15T20:52:48.838Z,55.10
2019-05-15T20:55:15.843Z,55.50
2019-05-15T20:57:42.193Z,55.70
2019-05-15T21:00:10.614Z,55.80
2019-05-15T21:02:37.998Z,56.20
2019-05-15T21:05:04.659Z,56.50
2019-05-15T21:07:38.830Z,56.90
2019-05-15T21:10:05.002Z,57.10
2019-05-15T21:12:31.395Z,58.00
2019-05-15T21:14:58.142Z,58.20
2019-05-15T21:17:24.527Z,59.00
2019-05-15T21:19:51.028Z,59.20
2019-05-15T21:22:18.046Z,59.40
2019-05-15T21:24:44.878Z,59.40
2019-05-15T21:27:11.424Z,59.30
2019-05-15T21:29:38.162Z,59.90
2019-05-15T21:32:08.338Z,60.30
2019-05-15T21:34:37.998Z,61.10
2019-05-15T21:37:02.600Z,61.60
2019-05-15T21:39:30.243Z,62.60
2019-05-15T21:41:58.327Z,63.40
2019-05-15T21:44:24.562Z,63.80
2019-05-15T21:46:50.825Z,64.70
2019-05-15T21:49:19.165Z,66.80
2019-05-15T21:51:45.275Z,66.50
2019-05-15T21:54:11.680Z,69.00
2019-05-15T21:56:38.704Z,70.20
2019-05-15T21:59:05.178Z,71.70
2019-05-15T22:01:31.732Z,74.00
2019-05-15T22:03:58.930Z,76.40
2019-05-15T22:06:25.269Z,77.40
2019-05-15T22:09:13.439Z,78.80
2019-05-15T22:11:39.995Z,79.20
2019-05-15T22:14:08.022Z,83.80
2019-05-15T22:16:34.738Z,86.00
2019-05-15T22:19:01.099Z,87.00
2019-05-15T22:21:27.509Z,88.80
2019-05-15T22:23:54.069Z,92.30
2019-05-15T22:26:21.570Z,91.60
2019-05-15T22:28:48.971Z,93.60
2019-05-15T22:31:15.470Z,94.60
2019-05-15T22:33:41.813Z,96.20
2019-05-15T22:36:08.474Z,96.60
2019-05-15T22:38:34.983Z,96.20
2019-05-15T22:41:01.210Z,96.80
2019-05-15T22:43:28.831Z,97.50
2019-05-15T22:45:55.142Z,99.80
2019-05-15T22:48:21.373Z,99.50
2019-05-15T22:50:47.968Z,99.90
2019-05-15T22:53:14.278Z,99.90
2019-05-15T22:55:40.821Z,99.90
2019-05-15T22:58:08.738Z,99.90
2019-05-15T23:00:35.213Z,99.90
2019-05-15T23:03:01.554Z,99.90
2019-05-15T23:05:31.553Z,99.90
2019-05-15T23:07:58.615Z,99.90
2019-05-15T23:10:24.340Z,99.90
2019-05-15T23:12:50.771Z,99.90
2019-05-15T23:15:18.914Z,99.90
2019-05-15T23:17:45.386Z,99.90
2019-05-15T23:20:12.484Z,99.90
2019-05-15T23:22:38.910Z,99.90
2019-05-15T23:25:06.633Z,99.90
2019-05-15T23:27:32.979Z,99.90
2019-05-15T23:29:59.269Z,99.90
2019-05-15T23:32:25.618Z,99.90
2019-05-15T23:34:51.948Z,99.90
2019-05-15T23:37:18.350Z,99.90
2019-05-15T23:39:44.724Z,99.90
2019-05-15T23:42:11.225Z,99.90
2019-05-15T23:44:38.229Z,99.90
2019-05-15T23:47:04.744Z,99.90
2019-05-15T23:49:31.131Z,99.90
2019-05-15T23:51:58.184Z,99.90
2019-05-15T23:54:24.552Z,99.90
2019-05-15T23:56:51.026Z,99.90
2019-05-15T23:59:18.788Z,99.90
